KPSM/PSM METAR and TAF weather

Enter ICAO airport designator
Station Type Date Time Source
KPSM METAR 2023/02/05 13:55 UTC NOAA

KPSM 051355Z 23006KT 10SM FEW100 SCT170 OVC250 M03/M12 A3017 RMK AO2A SLP221 T10261116


Station Type Date Time Source
KPSM Decoded METAR 2023/02/05 13:55 UTC NOAA

Pease Air Force Base / Portsmouth, NH, United States (KPSM) 43-05N 070-49W
Feb 05, 2023 - 08:55 AM EST / 2023.02.05 1355 UTC
Wind: from the SW (230 degrees) at 7 MPH (6 KT):0
Visibility: 10 mile(s):0
Sky conditions: overcast
Temperature: 27.3 F (-2.6 C)
Windchill: 19 F (-7 C):1
Dew Point: 11.1 F (-11.6 C)
Relative Humidity: 49%
Pressure (altimeter): 30.17 in. Hg (1021 hPa)
ob: KPSM 051355Z 23006KT 10SM FEW100 SCT170 OVC250 M03/M12 A3017 RMK AO2A SLP221 T10261116
cycle: 14

Station Type Date Time Source
KPSM TAF 2023/02/05 12:22 UTC NOAA

TAF KPSM 051120Z 0512/0612 22005KT P6SM SCT060 BKN110 OVC180
FM051400 23009G17KT P6SM BKN200
FM060000 21006KT P6SM OVC250

Example: see airport list